Terminal Aerodrome Forecast
Issued by NWS

Home | Current Version | Previous Version | Text Only | Print | Product List | Glossary On
Versions: 1 2 3 4 5 6 7 8 9 10 11 12 13 14 15 16 17 18 19 20
245
FTUS41 KCAR 171727 AAA
TAFFVE
TAF AMD
KFVE 171727Z 1717/1818 24010G18KT P6SM SCT040 BKN070
     FM172000 22012G20KT P6SM BKN040
     FM180000 21009KT P6SM VCSH BKN035
     FM180200 20008KT P6SM VCSH BKN030
     FM180600 25008KT P6SM VCSH BKN025
     FM181000 26008KT P6SM SCT030
     FM181400 29010G18KT P6SM FEW045=

USA.gov is the U.S. government's official web portal to all federal, state and local government web resources and services.